Bachir Chihani — 7TJA — position and weather

sailwx.info

Track history (hours):
 
Tides and Currents Weather Stations Pressure Air Temp Water Temp Dewpoint Dewpoint Depression Visibility Wind Speed Wind Dir Waves Ship Positions

Bachir Chihani

Last reported at 2015-May-23 04:33 UTC. Time now 2015-May-23 16:30 UTC.
Position N 36°26' E 014°43'.

Length 280 m; draft 11.1 m.

Type: Ship (hazmat cat C). MMSI: 605106010.

Date/timePositionNaut miles runAvg speedWind from/ knotsBaromVisibWave heightAir tempDewpointWater temp
2015-May-23 04:33N 36°26' E 014°43'1313.3
2015-May-23 03:33N 36°28' E 014°27'1313.0
2015-May-23 02:32N 36°30' E 014°11'1313.1
2015-May-23 01:34N 36°30' E 013°55'1313.0
2015-May-23 00:33N 36°32' E 013°39'  
2015-May-18 17:06N 35°49' W 000°15'1 1.0
2015-May-18 16:12N 35°49' W 000°14'2 3.2
2015-May-18 15:33N 35°51' W 000°13'2 1.7
2015-May-18 14:33N 35°51' W 000°11'1 1.0
2015-May-18 13:27N 35°51' W 000°12'10410.3
2015-May-18 03:23N 36°47' E 001°37'55010.8
2015-May-16 00:33N 36°45' E 013°03'1212.1
2015-May-15 23:33N 36°43' E 013°18'1211.7
2015-May-15 22:33N 36°41' E 013°32'1211.7
2015-May-15 21:33N 36°37' E 013°46'1212.0
2015-May-15 20:33N 36°35' E 014°01'1212.2
2015-May-15 19:33N 36°32' E 014°16'1312.7
2015-May-15 18:33N 36°30' E 014°31'1212.3
2015-May-15 17:33N 36°27' E 014°46'1312.8
2015-May-15 16:33N 36°24' E 015°01'1312.5
2015-May-15 15:33N 36°22' E 015°17'1312.5
2015-May-15 14:33N 36°21' E 015°32'1212.5
2015-May-15 13:33N 36°21' E 015°48'3012.1
2015-May-15 11:04N 36°20' E 016°25'32412.2
2015-May-14 08:33N 36°02' E 023°06'1211.8
2015-May-14 07:33N 36°09' E 023°17'2511.9
2015-May-14 05:25N 36°28' E 023°38'7212.2
2015-May-13 23:30N 37°12' E 024°50'1112.1
2015-May-13 22:33N 37°16' E 025°03'1312.5
2015-May-13 21:33N 37°17' E 025°19'1212.4
2015-May-13 20:33N 37°20' E 025°34'1010.5
2015-May-13 19:33N 37°27' E 025°44'1312.6
2015-May-13 18:33N 37°40' E 025°44'  
Track history (hours):
 
Tides and Currents Weather Stations Pressure Air Temp Water Temp Dewpoint Dewpoint Depression Visibility Wind Speed Wind Dir Waves Ship Positions

Bachir Chihani

Last reported at 2015-May-23 04:33 UTC. Time now 2015-May-23 16:30 UTC.
Position N 36°26' E 014°43'.

Length 280 m; draft 11.1 m.

Type: Ship (hazmat cat C). MMSI: 605106010.

Date/timePositionNaut miles runAvg speedWind from/ knotsBaromVisibWave heightAir tempDewpointWater temp
2015-May-23 04:33N 36°26' E 014°43'1313.3
2015-May-23 03:33N 36°28' E 014°27'1313.0
2015-May-23 02:32N 36°30' E 014°11'1313.1
2015-May-23 01:34N 36°30' E 013°55'1313.0
2015-May-23 00:33N 36°32' E 013°39'  
2015-May-18 17:06N 35°49' W 000°15'1 1.0
2015-May-18 16:12N 35°49' W 000°14'2 3.2
2015-May-18 15:33N 35°51' W 000°13'2 1.7
2015-May-18 14:33N 35°51' W 000°11'1 1.0
2015-May-18 13:27N 35°51' W 000°12'10410.3
2015-May-18 03:23N 36°47' E 001°37'55010.8
2015-May-16 00:33N 36°45' E 013°03'1212.1
2015-May-15 23:33N 36°43' E 013°18'1211.7
2015-May-15 22:33N 36°41' E 013°32'1211.7
2015-May-15 21:33N 36°37' E 013°46'1212.0
2015-May-15 20:33N 36°35' E 014°01'1212.2
2015-May-15 19:33N 36°32' E 014°16'1312.7
2015-May-15 18:33N 36°30' E 014°31'1212.3
2015-May-15 17:33N 36°27' E 014°46'1312.8
2015-May-15 16:33N 36°24' E 015°01'1312.5
2015-May-15 15:33N 36°22' E 015°17'1312.5
2015-May-15 14:33N 36°21' E 015°32'1212.5
2015-May-15 13:33N 36°21' E 015°48'3012.1
2015-May-15 11:04N 36°20' E 016°25'32412.2
2015-May-14 08:33N 36°02' E 023°06'1211.8
2015-May-14 07:33N 36°09' E 023°17'2511.9
2015-May-14 05:25N 36°28' E 023°38'7212.2
2015-May-13 23:30N 37°12' E 024°50'1112.1
2015-May-13 22:33N 37°16' E 025°03'1312.5
2015-May-13 21:33N 37°17' E 025°19'1212.4
2015-May-13 20:33N 37°20' E 025°34'1010.5
2015-May-13 19:33N 37°27' E 025°44'1312.6
2015-May-13 18:33N 37°40' E 025°44'  

Dump ship's entire track history